Time,TemperatureF,DewpointF,PressureIn,WindDirection,WindDirectionDegrees,WindSpeedMPH,WindSpeedGustMPH,Humidity,HourlyPrecipIn,Conditions,Clouds,dailyrainin,SoftwareType,DateUTC
2013-04-01 00:02:00,53.0,42.0,29.91,WNW,303,3.0,8.0,67,0.00,,,0.01,,2013-04-01 05:02:00,
2013-04-01 00:12:00,53.0,42.0,29.91,WNW,303,3.0,8.0,67,0.00,,,0.01,,2013-04-01 05:12:00,
2013-04-01 00:22:00,53.0,43.0,29.92,NNW,348,5.0,9.0,69,0.00,,,0.01,,2013-04-01 05:22:00,
2013-04-01 00:32:00,52.0,43.0,29.91,NNW,346,5.0,8.0,70,0.00,,,0.00,,2013-04-01 05:32:00,
2013-04-01 00:43:00,52.0,43.0,29.91,NNW,346,5.0,8.0,70,0.00,,,0.00,,2013-04-01 05:43:00,
2013-04-01 00:52:00,52.0,43.0,29.93,NNW,336,2.0,7.0,71,0.00,,,0.00,,2013-04-01 05:52:00,
2013-04-01 01:02:00,51.0,42.0,29.94,NW,325,3.0,8.0,70,0.00,,,0.00,,2013-04-01 06:02:00,
2013-04-01 01:12:00,51.0,42.0,29.94,NW,325,3.0,8.0,70,0.00,,,0.00,,2013-04-01 06:12:00,
2013-04-01 01:22:00,50.0,41.0,29.94,NW,311,0.0,0.0,71,0.00,,,0.00,,2013-04-01 06:22:00,
2013-04-01 01:33:00,50.0,41.0,29.95,NW,318,0.0,5.0,71,0.00,,,0.00,,2013-04-01 06:33:00,
2013-04-01 01:43:00,50.0,41.0,29.95,NW,318,0.0,5.0,71,0.00,,,0.00,,2013-04-01 06:43:00,
2013-04-01 01:52:00,50.0,38.0,29.96,NNW,341,6.0,14.0,64,0.00,,,0.00,,2013-04-01 06:52:00,
2013-04-01 02:02:00,49.0,37.0,29.96,NNW,348,5.0,10.0,63,0.00,,,0.00,,2013-04-01 07:02:00,
2013-04-01 02:12:00,49.0,37.0,29.96,NNW,348,5.0,10.0,63,0.00,,,0.00,,2013-04-01 07:12:00,
2013-04-01 02:22:00,48.0,35.0,29.96,North,355,4.0,13.0,60,0.00,,,0.00,,2013-04-01 07:22:00,
2013-04-01 02:32:00,48.0,35.0,29.97,NNW,332,7.0,13.0,60,0.00,,,0.00,,2013-04-01 07:32:00,
2013-04-01 02:42:00,48.0,35.0,29.97,NNW,332,7.0,13.0,60,0.00,,,0.00,,2013-04-01 07:42:00,
2013-04-01 02:52:00,47.0,34.0,29.98,NW,313,6.0,13.0,61,0.00,,,0.00,,2013-04-01 07:52:00,
2013-04-01 03:02:00,45.0,34.0,29.98,NNE,15,0.0,8.0,64,0.00,,,0.00,,2013-04-01 08:02:00,
2013-04-01 03:12:00,45.0,34.0,29.98,NNE,15,0.0,8.0,64,0.00,,,0.00,,2013-04-01 08:12:00,
2013-04-01 03:22:00,44.0,34.0,29.99,North,5,0.0,0.0,67,0.00,,,0.00,,2013-04-01 08:22:00,
2013-04-01 03:32:00,44.0,34.0,30.00,NNW,346,0.0,5.0,68,0.00,,,0.00,,2013-04-01 08:32:00,
2013-04-01 03:43:00,44.0,34.0,30.00,NNW,346,0.0,5.0,68,0.00,,,0.00,,2013-04-01 08:43:00,
2013-04-01 03:52:00,43.0,34.0,30.00,NNW,335,0.0,6.0,69,0.00,,,0.00,,2013-04-01 08:52:00,
2013-04-01 04:02:00,43.0,34.0,30.02,NNW,347,0.0,11.0,70,0.00,,,0.00,,2013-04-01 09:02:00,
2013-04-01 04:12:00,43.0,34.0,30.02,NNW,347,0.0,11.0,70,0.00,,,0.00,,2013-04-01 09:12:00,
2013-04-01 04:22:00,43.0,34.0,30.02,NNW,347,0.0,11.0,70,0.00,,,0.00,,2013-04-01 09:22:00,
2013-04-01 04:33:00,41.0,33.0,30.03,NNW,348,0.0,0.0,72,0.00,,,0.00,,2013-04-01 09:33:00,
2013-04-01 04:43:00,41.0,33.0,30.03,NNW,348,0.0,0.0,72,0.00,,,0.00,,2013-04-01 09:43:00,
2013-04-01 04:53:00,41.0,32.0,30.04,North,355,5.0,9.0,71,0.00,,,0.00,,2013-04-01 09:53:00,
2013-04-01 05:03:00,41.0,32.0,30.04,NNW,336,4.0,10.0,69,0.00,,,0.00,,2013-04-01 10:03:00,
2013-04-01 05:12:00,41.0,32.0,30.04,NNW,336,4.0,10.0,69,0.00,,,0.00,,2013-04-01 10:12:00,
2013-04-01 05:23:00,41.0,32.0,30.05,NNE,14,0.0,1.0,69,0.00,,,0.00,,2013-04-01 10:23:00,
2013-04-01 05:33:00,41.0,32.0,30.05,North,355,0.0,6.0,71,0.00,,,0.00,,2013-04-01 10:33:00,
2013-04-01 05:42:00,41.0,32.0,30.05,North,355,0.0,6.0,71,0.00,,,0.00,,2013-04-01 10:42:00,
2013-04-01 05:53:00,41.0,32.0,30.06,NW,310,4.0,8.0,71,0.00,,,0.00,,2013-04-01 10:53:00,
2013-04-01 06:03:00,41.0,32.0,30.05,North,350,4.0,10.0,70,0.00,,,0.00,,2013-04-01 11:03:00,
2013-04-01 06:13:00,41.0,32.0,30.05,North,350,4.0,10.0,70,0.00,,,0.00,,2013-04-01 11:13:00,
2013-04-01 06:23:00,41.0,32.0,30.07,NNW,340,6.0,11.0,71,0.00,,,0.00,,2013-04-01 11:23:00,
2013-04-01 06:33:00,41.0,33.0,30.08,NNW,340,6.0,11.0,72,0.00,,,0.00,,2013-04-01 11:33:00,
2013-04-01 06:42:00,41.0,33.0,30.08,NNW,340,6.0,11.0,72,0.00,,,0.00,,2013-04-01 11:42:00,
2013-04-01 06:52:00,40.0,32.0,30.09,North,5,0.0,9.0,73,0.00,,,0.00,,2013-04-01 11:52:00,
2013-04-01 07:02:00,40.0,32.0,30.09,NNW,344,4.0,10.0,73,0.00,,,0.00,,2013-04-01 12:02:00,
2013-04-01 07:12:00,40.0,32.0,30.09,NNW,344,4.0,10.0,73,0.00,,,0.00,,2013-04-01 12:12:00,
2013-04-01 07:23:00,40.0,32.0,30.09,North,5,0.0,8.0,73,0.00,,,0.00,,2013-04-01 12:23:00,
2013-04-01 07:32:00,40.0,31.0,30.11,NNW,336,4.0,9.0,71,0.00,,,0.00,,2013-04-01 12:32:00,
2013-04-01 07:42:00,40.0,31.0,30.11,NNW,336,4.0,9.0,71,0.00,,,0.00,,2013-04-01 12:42:00,
2013-04-01 07:52:00,39.0,31.0,30.13,North,355,3.0,10.0,72,0.00,,,0.00,,2013-04-01 12:52:00,
2013-04-01 08:02:00,39.0,30.0,30.14,North,355,5.0,9.0,69,0.00,,,0.00,,2013-04-01 13:02:00,
2013-04-01 08:12:00,39.0,30.0,30.14,North,355,5.0,9.0,69,0.00,,,0.00,,2013-04-01 13:12:00,
2013-04-01 08:22:00,39.0,29.0,30.15,NNW,340,6.0,10.0,66,0.00,,,0.00,,2013-04-01 13:22:00,
2013-04-01 08:32:00,40.0,29.0,30.14,NNE,22,5.0,11.0,65,0.00,,,0.00,,2013-04-01 13:32:00,
2013-04-01 08:42:00,40.0,29.0,30.14,NNE,22,5.0,11.0,65,0.00,,,0.00,,2013-04-01 13:42:00,
2013-04-01 08:52:00,39.0,28.0,30.15,North,5,9.0,13.0,64,0.00,,,0.00,,2013-04-01 13:52:00,
2013-04-01 09:03:00,39.0,29.0,30.16,NNW,348,6.0,13.0,67,0.00,,,0.00,,2013-04-01 14:03:00,
2013-04-01 09:12:00,39.0,29.0,30.16,NNW,348,6.0,13.0,67,0.00,,,0.00,,2013-04-01 14:12:00,
2013-04-01 09:22:00,40.0,31.0,30.16,West,269,4.0,12.0,69,0.00,,,0.00,,2013-04-01 14:22:00,
2013-04-01 09:33:00,40.0,29.0,30.16,North,5,6.0,13.0,64,0.00,,,0.00,,2013-04-01 14:33:00,
2013-04-01 09:42:00,40.0,29.0,30.16,North,5,6.0,13.0,64,0.00,,,0.00,,2013-04-01 14:42:00,
2013-04-01 09:52:00,41.0,30.0,30.17,NW,322,7.0,13.0,64,0.00,,,0.00,,2013-04-01 14:52:00,
2013-04-01 10:03:00,41.0,27.0,30.17,NNW,346,8.0,15.0,56,0.00,,,0.00,,2013-04-01 15:03:00,
2013-04-01 10:13:00,41.0,27.0,30.17,NNW,346,8.0,15.0,56,0.00,,,0.00,,2013-04-01 15:13:00,
2013-04-01 10:22:00,41.0,28.0,30.17,NW,325,7.0,11.0,60,0.00,,,0.00,,2013-04-01 15:22:00,
2013-04-01 10:34:00,42.0,30.0,30.17,North,355,6.0,12.0,62,0.00,,,0.00,,2013-04-01 15:34:00,
2013-04-01 10:43:00,42.0,30.0,30.17,North,355,6.0,12.0,62,0.00,,,0.00,,2013-04-01 15:43:00,
2013-04-01 10:53:00,42.0,28.0,30.18,WNW,292,6.0,13.0,58,0.00,,,0.00,,2013-04-01 15:53:00,
2013-04-01 11:03:00,42.0,28.0,30.18,WNW,292,6.0,13.0,58,0.00,,,0.00,,2013-04-01 16:03:00,
2013-04-01 11:13:00,42.0,28.0,30.18,WNW,292,6.0,13.0,58,0.00,,,0.00,,2013-04-01 16:13:00,
2013-04-01 11:23:00,43.0,28.0,30.20,WNW,302,8.0,13.0,56,0.00,,,0.00,,2013-04-01 16:23:00,
2013-04-01 11:33:00,43.0,29.0,30.19,WNW,303,8.0,13.0,57,0.00,,,0.00,,2013-04-01 16:33:00,
2013-04-01 11:42:00,43.0,29.0,30.19,WNW,303,8.0,13.0,57,0.00,,,0.00,,2013-04-01 16:42:00,
2013-04-01 11:52:00,43.0,28.0,30.19,North,5,7.0,14.0,54,0.00,,,0.00,,2013-04-01 16:52:00,
2013-04-01 12:03:00,44.0,29.0,30.19,North,10,8.0,14.0,55,0.00,,,0.00,,2013-04-01 17:03:00,
2013-04-01 12:12:00,44.0,29.0,30.19,North,10,8.0,14.0,55,0.00,,,0.00,,2013-04-01 17:12:00,
2013-04-01 12:22:00,44.0,29.0,30.19,NNW,329,3.0,12.0,55,0.00,,,0.00,,2013-04-01 17:22:00,
2013-04-01 12:32:00,44.0,29.0,30.19,NNW,329,3.0,12.0,55,0.00,,,0.00,,2013-04-01 17:32:00,
2013-04-01 12:42:00,44.0,29.0,30.19,NNW,329,3.0,12.0,55,0.00,,,0.00,,2013-04-01 17:42:00,
2013-04-01 12:52:00,44.0,28.0,30.19,NNW,332,7.0,13.0,52,0.00,,,0.00,,2013-04-01 17:52:00,
2013-04-01 13:03:00,45.0,28.0,30.19,NW,311,7.0,14.0,51,0.00,,,0.00,,2013-04-01 18:03:00,
2013-04-01 13:12:00,45.0,28.0,30.19,NW,311,7.0,14.0,51,0.00,,,0.00,,2013-04-01 18:12:00,
2013-04-01 13:22:00,46.0,27.0,30.19,NNW,335,7.0,14.0,47,0.00,,,0.00,,2013-04-01 18:22:00,
2013-04-01 13:32:00,46.0,27.0,30.19,NNW,335,7.0,14.0,47,0.00,,,0.00,,2013-04-01 18:32:00,
2013-04-01 13:42:00,46.0,27.0,30.19,NNW,335,7.0,14.0,47,0.00,,,0.00,,2013-04-01 18:42:00,
2013-04-01 13:52:00,46.0,26.0,30.19,NW,308,5.0,14.0,45,0.00,,,0.00,,2013-04-01 18:52:00,
2013-04-01 14:03:00,46.0,25.0,30.18,NNW,336,5.0,14.0,44,0.00,,,0.00,,2013-04-01 19:03:00,
2013-04-01 14:12:00,46.0,25.0,30.18,NNW,336,5.0,14.0,44,0.00,,,0.00,,2013-04-01 19:12:00,
2013-04-01 14:23:00,46.0,25.0,30.18,NNW,348,10.0,14.0,43,0.00,,,0.00,,2013-04-01 19:23:00,
2013-04-01 14:32:00,47.0,27.0,30.18,NNW,348,8.0,13.0,45,0.00,,,0.00,,2013-04-01 19:32:00,
2013-04-01 14:42:00,47.0,27.0,30.18,NNW,348,8.0,13.0,45,0.00,,,0.00,,2013-04-01 19:42:00,
2013-04-01 14:53:00,47.0,27.0,30.18,NNW,348,8.0,13.0,45,0.00,,,0.00,,2013-04-01 19:53:00,
2013-04-01 15:02:00,48.0,30.0,30.18,NNW,346,5.0,10.0,49,0.00,,,0.00,,2013-04-01 20:02:00,
2013-04-01 15:12:00,48.0,30.0,30.18,NNW,346,5.0,10.0,49,0.00,,,0.00,,2013-04-01 20:12:00,
2013-04-01 15:22:00,47.0,27.0,30.18,NW,315,6.0,11.0,45,0.00,,,0.00,,2013-04-01 20:22:00,
2013-04-01 15:32:00,48.0,28.0,30.17,North,355,8.0,12.0,45,0.00,,,0.00,,2013-04-01 20:32:00,
2013-04-01 15:42:00,48.0,28.0,30.17,North,355,8.0,12.0,45,0.00,,,0.00,,2013-04-01 20:42:00,
2013-04-01 15:52:00,48.0,25.0,30.18,NNW,338,6.0,12.0,41,0.00,,,0.00,,2013-04-01 20:52:00,
2013-04-01 16:02:00,48.0,24.0,30.18,NNW,344,8.0,14.0,38,0.00,,,0.00,,2013-04-01 21:02:00,
2013-04-01 16:12:00,48.0,24.0,30.18,NNW,344,8.0,14.0,38,0.00,,,0.00,,2013-04-01 21:12:00,
2013-04-01 16:22:00,47.0,22.0,30.18,NW,308,7.0,14.0,37,0.00,,,0.00,,2013-04-01 21:22:00,
2013-04-01 16:32:00,47.0,23.0,30.18,NNW,327,8.0,14.0,39,0.00,,,0.00,,2013-04-01 21:32:00,
2013-04-01 16:43:00,47.0,23.0,30.18,NNW,327,8.0,14.0,39,0.00,,,0.00,,2013-04-01 21:43:00,
2013-04-01 16:52:00,47.0,25.0,30.18,North,360,6.0,13.0,42,0.00,,,0.00,,2013-04-01 21:52:00,
2013-04-01 17:02:00,47.0,26.0,30.18,NW,319,7.0,14.0,44,0.00,,,0.00,,2013-04-01 22:02:00,
2013-04-01 17:12:00,47.0,26.0,30.18,NW,319,7.0,14.0,44,0.00,,,0.00,,2013-04-01 22:12:00,
2013-04-01 17:22:00,48.0,27.0,30.18,NNW,344,6.0,12.0,44,0.00,,,0.00,,2013-04-01 22:22:00,
2013-04-01 17:33:00,47.0,25.0,30.18,North,349,6.0,13.0,42,0.00,,,0.00,,2013-04-01 22:33:00,
2013-04-01 17:43:00,47.0,25.0,30.18,North,349,6.0,13.0,42,0.00,,,0.00,,2013-04-01 22:43:00,
2013-04-01 17:52:00,47.0,25.0,30.18,WNW,290,6.0,12.0,42,0.00,,,0.00,,2013-04-01 22:52:00,
2013-04-01 18:02:00,47.0,25.0,30.19,WNW,302,8.0,13.0,41,0.00,,,0.00,,2013-04-01 23:02:00,
2013-04-01 18:12:00,47.0,25.0,30.19,WNW,302,8.0,13.0,41,0.00,,,0.00,,2013-04-01 23:12:00,
2013-04-01 18:23:00,46.0,25.0,30.19,NNW,329,5.0,13.0,44,0.00,,,0.00,,2013-04-01 23:23:00,
2013-04-01 18:32:00,46.0,25.0,30.20,WNW,300,5.0,12.0,44,0.00,,,0.00,,2013-04-01 23:32:00,
2013-04-01 18:42:00,46.0,25.0,30.20,WNW,300,5.0,12.0,44,0.00,,,0.00,,2013-04-01 23:42:00,
2013-04-01 18:52:00,46.0,25.0,30.20,NNW,342,4.0,11.0,43,0.00,,,0.00,,2013-04-01 23:52:00,
2013-04-01 19:03:00,45.0,25.0,30.20,North,350,5.0,10.0,46,0.00,,,0.00,,2013-04-02 00:03:00,
2013-04-01 19:12:00,45.0,25.0,30.20,North,350,5.0,10.0,46,0.00,,,0.00,,2013-04-02 00:12:00,
2013-04-01 19:22:00,44.0,26.0,30.20,NNW,342,3.0,9.0,49,0.00,,,0.00,,2013-04-02 00:22:00,
2013-04-01 19:33:00,43.0,26.0,30.21,NNW,342,4.0,8.0,51,0.00,,,0.00,,2013-04-02 00:33:00,
2013-04-01 19:42:00,43.0,26.0,30.21,NNW,342,4.0,8.0,51,0.00,,,0.00,,2013-04-02 00:42:00,
2013-04-01 19:52:00,42.0,26.0,30.21,NNW,343,3.0,5.0,53,0.00,,,0.00,,2013-04-02 00:52:00,
2013-04-01 20:02:00,41.0,26.0,30.21,NNW,345,0.0,0.0,55,0.00,,,0.00,,2013-04-02 01:02:00,
2013-04-01 20:12:00,41.0,26.0,30.21,NNW,345,0.0,0.0,55,0.00,,,0.00,,2013-04-02 01:12:00,
2013-04-01 20:22:00,41.0,27.0,30.21,NW,317,0.0,0.0,57,0.00,,,0.00,,2013-04-02 01:22:00,
2013-04-01 20:32:00,40.0,27.0,30.21,NW,317,0.0,0.0,60,0.00,,,0.00,,2013-04-02 01:32:00,
2013-04-01 20:42:00,40.0,27.0,30.21,NW,317,0.0,0.0,60,0.00,,,0.00,,2013-04-02 01:42:00,
2013-04-01 20:52:00,40.0,27.0,30.22,NNW,327,0.0,0.0,59,0.00,,,0.00,,2013-04-02 01:52:00,
2013-04-01 21:02:00,39.0,26.0,30.22,NNW,331,0.0,0.0,60,0.00,,,0.00,,2013-04-02 02:02:00,
2013-04-01 21:12:00,39.0,26.0,30.22,NNW,331,0.0,0.0,60,0.00,,,0.00,,2013-04-02 02:12:00,
2013-04-01 21:22:00,39.0,27.0,30.23,NNW,331,0.0,0.0,61,0.00,,,0.00,,2013-04-02 02:22:00,
2013-04-01 21:32:00,38.0,26.0,30.23,NNW,331,0.0,0.0,62,0.00,,,0.00,,2013-04-02 02:32:00,
2013-04-01 21:42:00,38.0,26.0,30.23,NNW,331,0.0,0.0,62,0.00,,,0.00,,2013-04-02 02:42:00,
2013-04-01 21:52:00,38.0,27.0,30.23,NNW,331,0.0,0.0,64,0.00,,,0.00,,2013-04-02 02:52:00,
2013-04-01 22:02:00,37.0,26.0,30.24,NNW,331,0.0,0.0,64,0.00,,,0.00,,2013-04-02 03:02:00,
2013-04-01 22:12:00,37.0,26.0,30.24,NNW,331,0.0,0.0,64,0.00,,,0.00,,2013-04-02 03:12:00,
2013-04-01 22:22:00,37.0,26.0,30.24,NNW,333,0.0,0.0,64,0.00,,,0.00,,2013-04-02 03:22:00,
2013-04-01 22:33:00,37.0,26.0,30.24,NNW,333,0.0,0.0,64,0.00,,,0.00,,2013-04-02 03:33:00,
2013-04-01 22:43:00,37.0,26.0,30.24,NNW,333,0.0,0.0,64,0.00,,,0.00,,2013-04-02 03:43:00,
2013-04-01 22:53:00,37.0,26.0,30.24,NW,318,0.0,0.0,64,0.00,,,0.00,,2013-04-02 03:53:00,
2013-04-01 23:03:00,37.0,26.0,30.24,NNW,329,0.0,0.0,64,0.00,,,0.00,,2013-04-02 04:03:00,
2013-04-01 23:13:00,37.0,26.0,30.24,NNW,329,0.0,0.0,64,0.00,,,0.00,,2013-04-02 04:13:00,
2013-04-01 23:23:00,36.0,26.0,30.23,NNW,329,0.0,0.0,67,0.00,,,0.00,,2013-04-02 04:23:00,
2013-04-01 23:32:00,36.0,26.0,30.23,NNW,329,0.0,0.0,66,0.00,,,0.00,,2013-04-02 04:32:00,
2013-04-01 23:43:00,36.0,26.0,30.23,NNW,329,0.0,0.0,66,0.00,,,0.00,,2013-04-02 04:43:00,
2013-04-01 23:52:00,35.0,25.0,30.24,NNW,329,0.0,0.0,66,0.00,,,0.00,,2013-04-02 04:52:00,